createdAt,value
2019-05-17T08:40:40.724Z,21.85
2019-05-17T08:43:21.281Z,28.55
2019-05-17T08:46:02.243Z,19.33
2019-05-17T08:49:06.430Z,26.37
2019-05-17T08:51:49.933Z,33.75
2019-05-17T08:54:22.055Z,38.28
2019-05-17T08:59:51.495Z,22.85
2019-05-17T09:02:32.935Z,26.82
2019-05-17T09:07:54.204Z,16.02
2019-05-17T09:10:36.420Z,28.27
2019-05-17T09:14:02.139Z,22.02
2019-05-17T09:16:32.784Z,29.75
2019-05-17T09:19:03.487Z,37.67
2019-05-17T09:21:39.753Z,28.77
2019-05-17T09:24:26.081Z,25.75
2019-05-17T09:26:56.998Z,24.95
2019-05-17T09:29:29.569Z,20.62
2019-05-17T09:32:00.064Z,22.82
2019-05-17T09:34:32.865Z,30.50
2019-05-17T09:37:10.785Z,24.85
2019-05-17T09:40:03.578Z,17.82
2019-05-17T09:42:42.812Z,23.18
2019-05-17T09:45:16.007Z,29.37
2019-05-17T09:47:50.332Z,25.05
2019-05-17T09:50:24.992Z,26.02
2019-05-17T09:52:59.961Z,23.27
2019-05-17T09:55:36.319Z,29.87
2019-05-17T09:58:07.056Z,34.60
2019-05-17T10:00:40.233Z,29.07
2019-05-17T10:03:23.823Z,27.82
2019-05-17T10:08:39.436Z,22.02
2019-05-17T10:11:12.246Z,34.27
2019-05-17T10:13:42.862Z,24.12
2019-05-17T10:16:13.529Z,19.92
2019-05-17T10:18:44.342Z,19.52
2019-05-17T10:21:19.838Z,20.90
2019-05-17T10:23:53.312Z,21.12
2019-05-17T10:26:24.162Z,17.42
2019-05-17T10:28:59.415Z,18.92
2019-05-17T10:31:30.839Z,15.58
2019-05-17T10:34:01.281Z,17.05
2019-05-17T10:36:40.140Z,13.62
2019-05-17T10:39:10.905Z,16.05
2019-05-17T10:41:41.531Z,14.40
2019-05-17T10:44:11.961Z,18.67
2019-05-17T10:46:43.119Z,15.48
2019-05-17T10:49:14.895Z,17.95
2019-05-17T10:51:45.447Z,12.68
2019-05-17T10:54:16.081Z,13.43
2019-05-17T11:12:17.670Z,29.40
2019-05-17T11:14:52.550Z,23.80
2019-05-17T11:17:25.110Z,31.25
2019-05-17T11:20:00.978Z,18.77
2019-05-17T11:22:34.260Z,23.35
2019-05-17T11:25:12.490Z,22.77
2019-05-17T11:27:46.631Z,22.02
2019-05-17T11:30:18.667Z,16.10
2019-05-17T11:32:49.501Z,13.03
2019-05-17T11:35:24.806Z,13.18
2019-05-17T11:37:54.487Z,11.55
2019-05-17T11:40:27.473Z,11.70
2019-05-17T11:43:07.677Z,10.68
2019-05-17T11:45:38.296Z,13.88
2019-05-17T11:48:16.169Z,12.70
2019-05-17T11:50:43.585Z,13.20
2019-05-17T11:53:14.563Z,10.50
2019-05-17T11:55:45.191Z,10.80
2019-05-17T11:58:24.900Z,9.73
2019-05-17T12:00:55.333Z,8.00
2019-05-17T12:03:26.784Z,12.45
2019-05-17T12:05:57.901Z,13.78
2019-05-17T12:08:28.749Z,21.10
2019-05-17T12:11:05.340Z,13.68
2019-05-17T12:13:35.869Z,23.02
2019-05-17T12:16:06.495Z,21.77
2019-05-17T12:18:42.877Z,30.50
2019-05-17T12:21:16.516Z,35.15
2019-05-17T12:23:47.763Z,27.98
2019-05-17T12:26:19.002Z,29.32
2019-05-17T12:29:03.755Z,11.48
2019-05-17T12:32:02.465Z,13.48
2019-05-17T12:34:37.177Z,16.32
2019-05-17T12:37:08.019Z,13.08
2019-05-17T12:39:42.184Z,11.40
2019-05-17T12:42:17.363Z,15.63
2019-05-17T12:44:47.932Z,10.18
2019-05-17T12:47:18.331Z,12.25
2019-05-17T12:49:50.026Z,9.30
2019-05-17T12:52:20.578Z,13.35
2019-05-17T12:54:53.935Z,13.15
2019-05-17T12:57:24.603Z,20.72
2019-05-17T12:59:55.730Z,15.15
2019-05-17T13:02:28.943Z,21.42
2019-05-17T13:05:00.760Z,21.07
2019-05-17T13:07:41.340Z,19.87
2019-05-17T13:10:13.794Z,16.02
2019-05-17T13:12:46.722Z,19.48
2019-05-17T13:15:19.092Z,20.15
2019-05-17T13:17:51.709Z,20.80
2019-05-17T13:20:24.923Z,20.92
2019-05-17T13:22:57.895Z,17.45
2019-05-17T13:25:28.498Z,26.52
2019-05-17T13:28:04.584Z,25.50
2019-05-17T13:30:38.002Z,28.87
2019-05-17T13:33:12.843Z,26.07
2019-05-17T13:35:45.088Z,23.30
2019-05-17T13:51:44.662Z,30.10
2019-05-17T13:54:15.087Z,29.60
2019-05-17T13:56:45.438Z,29.23
2019-05-17T13:59:27.959Z,27.37
2019-05-17T14:02:02.026Z,31.45
2019-05-17T14:04:37.747Z,26.95
2019-05-17T14:07:08.348Z,27.00
2019-05-17T14:09:39.598Z,39.50
2019-05-17T14:12:10.250Z,28.15
2019-05-17T14:14:40.611Z,24.12
2019-05-17T14:17:11.079Z,17.65
2019-05-17T14:19:41.443Z,21.07
2019-05-17T14:22:12.661Z,27.02
2019-05-17T14:24:42.902Z,21.25
2019-05-17T14:27:13.374Z,26.75
2019-05-17T14:29:43.833Z,21.17
2019-05-17T14:32:14.908Z,19.35
2019-05-17T14:34:46.599Z,19.65
2019-05-17T14:37:16.998Z,18.57
2019-05-17T14:39:47.600Z,16.30
2019-05-17T14:42:18.412Z,17.35
2019-05-17T14:44:48.864Z,24.07
2019-05-17T14:47:19.245Z,15.25
2019-05-17T14:49:51.277Z,16.25
2019-05-17T14:52:23.536Z,17.65
2019-05-17T14:54:54.107Z,13.70
2019-05-17T14:57:28.468Z,14.13
2019-05-17T14:59:58.966Z,12.25
2019-05-17T15:02:29.417Z,12.93
2019-05-17T15:04:59.736Z,11.45
2019-05-17T15:07:30.200Z,9.10
2019-05-17T15:10:00.734Z,9.43
2019-05-17T15:12:31.206Z,7.83
2019-05-17T15:15:01.755Z,9.73
2019-05-17T15:17:34.880Z,8.68
2019-05-17T15:20:04.425Z,7.37
2019-05-17T15:22:34.917Z,8.98
2019-05-17T15:25:05.757Z,7.20
2019-05-17T15:27:36.290Z,10.05
2019-05-17T15:30:07.221Z,9.43
2019-05-17T15:32:37.708Z,6.65
2019-05-17T15:35:08.567Z,9.88
2019-05-17T15:37:39.037Z,9.58
2019-05-17T15:40:09.408Z,7.47
2019-05-17T15:42:44.385Z,5.72
2019-05-17T15:45:12.004Z,8.83
2019-05-17T15:47:42.469Z,8.53
2019-05-17T15:50:12.876Z,7.25
2019-05-17T15:52:43.305Z,6.40
2019-05-17T15:55:13.751Z,8.13
2019-05-17T15:57:44.184Z,7.92
2019-05-17T16:00:14.664Z,9.18
2019-05-17T16:02:45.167Z,6.87
2019-05-17T16:05:15.462Z,5.12
2019-05-17T16:07:45.921Z,5.78
2019-05-17T16:10:17.883Z,6.53
2019-05-17T16:13:01.787Z,7.97
2019-05-17T16:15:20.271Z,4.20
2019-05-17T16:17:50.820Z,7.62
2019-05-17T16:20:21.200Z,4.97
2019-05-17T16:22:51.584Z,5.87
2019-05-17T16:25:21.903Z,6.10
2019-05-17T16:27:52.481Z,7.17
2019-05-17T16:30:22.883Z,5.28
2019-05-17T16:32:53.345Z,5.72
2019-05-17T16:35:23.779Z,5.53
2019-05-17T16:37:54.160Z,5.45
2019-05-17T16:40:24.614Z,8.75
2019-05-17T16:42:55.187Z,6.55
2019-05-17T16:45:25.700Z,4.75
2019-05-17T16:47:56.140Z,6.70
2019-05-17T16:50:26.541Z,6.70
2019-05-17T16:53:05.549Z,6.00
2019-05-17T16:55:29.030Z,6.40
2019-05-17T16:57:59.516Z,5.65
2019-05-17T17:00:34.391Z,9.15
2019-05-17T17:03:04.761Z,6.25
2019-05-17T17:05:35.334Z,5.65
2019-05-17T17:08:05.869Z,8.08
2019-05-17T17:10:37.215Z,5.55
2019-05-17T17:13:07.606Z,8.80
2019-05-17T17:15:38.043Z,6.53
2019-05-17T17:18:08.601Z,5.80
2019-05-17T17:20:39.102Z,9.00
2019-05-17T17:23:09.592Z,6.45
2019-05-17T17:25:40.018Z,9.35
2019-05-17T17:28:10.469Z,5.97
2019-05-17T17:30:40.956Z,6.78
2019-05-17T17:33:11.297Z,7.25
2019-05-17T17:35:41.725Z,8.48
2019-05-17T17:38:12.085Z,6.78
2019-05-17T17:40:42.530Z,5.75
2019-05-17T17:43:13.548Z,6.67
2019-05-17T17:45:43.920Z,6.30
2019-05-17T17:48:14.403Z,7.90
2019-05-17T17:50:45.248Z,6.37
2019-05-17T17:53:16.742Z,6.55
2019-05-17T17:55:47.196Z,5.12
2019-05-17T17:58:17.721Z,6.83
2019-05-17T18:00:48.230Z,6.28
2019-05-17T18:03:19.021Z,8.45
2019-05-17T18:05:49.548Z,9.03
2019-05-17T18:08:20.055Z,7.37
2019-05-17T18:10:50.548Z,9.28
2019-05-17T18:13:21.000Z,13.40
2019-05-17T18:15:51.359Z,8.45
2019-05-17T18:18:21.935Z,9.20
2019-05-17T18:20:52.456Z,9.18
2019-05-17T18:23:23.684Z,10.93
2019-05-17T18:25:54.264Z,9.65
2019-05-17T18:28:24.806Z,9.28
2019-05-17T18:30:55.212Z,10.32
2019-05-17T18:33:25.553Z,9.50
2019-05-17T18:35:55.934Z,10.70
2019-05-17T18:38:26.391Z,11.75
2019-05-17T18:41:15.958Z,8.63
2019-05-17T18:43:46.478Z,11.38
2019-05-17T18:46:16.804Z,9.40
2019-05-17T18:48:47.264Z,12.28
2019-05-17T18:51:17.687Z,12.25
2019-05-17T18:53:48.175Z,11.95
2019-05-17T18:56:18.616Z,11.10
2019-05-17T18:58:49.096Z,9.78
2019-05-17T19:01:19.736Z,12.07
2019-05-17T19:03:50.204Z,18.48
2019-05-17T19:06:20.717Z,10.35
2019-05-17T19:08:51.123Z,17.20
2019-05-17T19:11:21.539Z,19.05
2019-05-17T19:13:51.968Z,14.93
2019-05-17T19:16:22.338Z,15.70
2019-05-17T19:18:52.836Z,12.43
2019-05-17T19:21:23.357Z,14.93
2019-05-17T19:23:53.844Z,15.38
2019-05-17T19:26:24.301Z,16.55
2019-05-17T19:28:54.787Z,11.90
2019-05-17T19:31:25.334Z,11.28
2019-05-17T19:33:55.738Z,9.65
2019-05-17T19:36:26.191Z,10.13
2019-05-17T19:38:56.720Z,10.58
2019-05-17T19:41:28.266Z,10.20
2019-05-17T19:43:58.804Z,10.63
2019-05-17T19:46:29.187Z,12.10
2019-05-17T19:48:59.715Z,10.72
2019-05-17T19:51:30.156Z,12.15
2019-05-17T19:54:00.596Z,11.55
2019-05-17T19:56:31.044Z,10.55
2019-05-17T19:59:01.504Z,10.23
2019-05-17T20:01:31.989Z,12.90
2019-05-17T20:04:02.427Z,9.15
2019-05-17T20:06:32.980Z,10.85
2019-05-17T20:09:04.053Z,9.10
2019-05-17T20:11:34.911Z,13.50
2019-05-17T20:14:06.389Z,7.70
2019-05-17T20:16:36.845Z,8.48
2019-05-17T20:19:07.323Z,12.00
2019-05-17T20:21:37.747Z,10.45
2019-05-17T20:24:08.152Z,9.28
2019-05-17T20:26:38.593Z,9.90
2019-05-17T20:29:10.824Z,8.75
2019-05-17T20:31:41.113Z,11.70
2019-05-17T20:34:11.567Z,13.28
2019-05-17T20:36:42.044Z,10.18
2019-05-17T20:39:12.571Z,12.03
2019-05-17T20:41:43.021Z,11.22
2019-05-17T20:44:13.466Z,10.82
2019-05-17T20:46:43.897Z,7.85
2019-05-17T20:49:14.484Z,6.33
2019-05-17T20:51:44.934Z,8.45
2019-05-17T20:54:15.385Z,10.88
2019-05-17T20:56:45.835Z,7.97
2019-05-17T20:59:16.496Z,10.20
2019-05-17T21:01:46.856Z,8.13
2019-05-17T21:04:17.380Z,8.75
2019-05-17T21:06:47.830Z,8.75
2019-05-17T21:09:18.304Z,8.03
2019-05-17T21:11:48.768Z,5.83
2019-05-17T21:14:19.371Z,8.90
2019-05-17T21:16:49.793Z,7.10
2019-05-17T21:19:20.227Z,9.35
2019-05-17T21:21:50.833Z,6.92
2019-05-17T21:24:21.217Z,8.03
2019-05-17T21:26:51.594Z,9.45
2019-05-17T21:29:23.095Z,6.80
2019-05-17T21:31:53.507Z,6.87
2019-05-17T21:34:23.950Z,8.30
2019-05-17T21:36:54.573Z,8.15
2019-05-17T21:39:25.011Z,8.85
2019-05-17T21:41:55.513Z,10.65
2019-05-17T21:44:26.016Z,8.83
2019-05-17T21:47:04.479Z,10.15
2019-05-17T21:49:28.512Z,7.12
2019-05-17T21:51:59.025Z,6.35
2019-05-17T21:54:29.541Z,9.78
2019-05-17T21:57:12.512Z,7.40
2019-05-17T21:59:42.978Z,8.73
2019-05-17T22:02:13.469Z,8.65
2019-05-17T22:04:43.924Z,9.35
2019-05-17T22:07:14.310Z,6.80
2019-05-17T22:09:44.675Z,9.55
2019-05-17T22:12:15.195Z,7.75
2019-05-17T22:14:45.669Z,11.15
2019-05-17T22:17:16.089Z,7.00
2019-05-17T22:19:46.540Z,9.95
2019-05-17T22:22:17.088Z,7.83
2019-05-17T22:24:47.472Z,8.08
2019-05-17T22:27:17.869Z,8.75
2019-05-17T22:29:48.275Z,7.08
2019-05-17T22:32:18.762Z,8.48
2019-05-17T22:34:49.102Z,8.75
2019-05-17T22:37:19.607Z,7.03
2019-05-17T22:39:50.095Z,10.32
2019-05-17T22:42:20.484Z,8.43
2019-05-17T22:44:50.896Z,7.53
2019-05-17T22:47:21.492Z,8.23
2019-05-17T22:49:51.848Z,8.10
2019-05-17T22:52:22.302Z,9.33
2019-05-17T22:54:52.773Z,8.43
2019-05-17T22:57:23.265Z,7.75
2019-05-17T22:59:53.695Z,8.65
2019-05-17T23:02:24.219Z,8.28
2019-05-17T23:04:54.730Z,10.00
2019-05-17T23:07:25.175Z,7.17
2019-05-17T23:09:55.712Z,9.05
2019-05-17T23:12:26.167Z,7.40
2019-05-17T23:14:56.533Z,11.10
2019-05-17T23:17:27.070Z,7.92
2019-05-17T23:19:57.668Z,8.30
2019-05-17T23:22:28.123Z,10.85
2019-05-17T23:24:58.566Z,7.35
2019-05-17T23:27:28.926Z,8.75
2019-05-17T23:29:59.399Z,8.75
2019-05-17T23:32:29.798Z,8.20
2019-05-17T23:35:00.191Z,8.73
2019-05-17T23:37:30.619Z,8.98
2019-05-17T23:40:01.063Z,8.70
2019-05-17T23:42:31.432Z,8.18
2019-05-17T23:45:01.843Z,8.30
2019-05-17T23:47:32.281Z,8.10
2019-05-17T23:50:02.743Z,8.98
2019-05-17T23:52:33.073Z,8.98
2019-05-17T23:55:03.675Z,8.75
2019-05-17T23:57:34.092Z,9.65
